createdAt,value
2023-01-11T00:02:48.228Z,88.70
2023-01-11T00:07:50.592Z,88.39
2023-01-11T00:13:01.299Z,88.19
2023-01-11T00:18:03.131Z,88.29
2023-01-11T00:23:04.903Z,88.36
2023-01-11T00:28:07.360Z,88.13
2023-01-11T00:33:10.924Z,88.21
2023-01-11T00:38:32.912Z,88.24
2023-01-11T00:43:53.185Z,88.28
2023-01-11T00:49:04.083Z,88.35
2023-01-11T00:54:05.829Z,88.34
2023-01-11T00:59:08.156Z,88.10
2023-01-11T01:04:10.949Z,87.96
2023-01-11T01:09:12.936Z,87.97
2023-01-11T01:14:30.863Z,87.95
2023-01-11T01:19:34.636Z,88.01
2023-01-11T01:24:36.739Z,88.06
2023-01-11T01:29:38.423Z,87.92
2023-01-11T01:34:40.348Z,87.71
2023-01-11T01:39:42.318Z,87.55
2023-01-11T01:45:12.750Z,87.69
2023-01-11T01:50:17.100Z,87.46
2023-01-11T01:55:35.056Z,87.25
2023-01-11T02:00:42.407Z,87.01
2023-01-11T02:05:44.959Z,86.99
2023-01-11T02:10:47.111Z,86.97
2023-01-11T02:16:07.871Z,87.15
2023-01-11T02:21:40.791Z,87.06
2023-01-11T02:26:51.707Z,87.02
2023-01-11T02:32:06.253Z,86.93
2023-01-11T02:37:28.683Z,86.91
2023-01-11T02:43:11.240Z,86.79
2023-01-11T02:48:30.664Z,86.87
2023-01-11T02:53:43.549Z,86.76
2023-01-11T02:58:48.181Z,87.02
2023-01-11T03:03:50.817Z,87.18
2023-01-11T03:09:19.121Z,87.55
2023-01-11T03:14:27.303Z,87.47
2023-01-11T03:19:46.638Z,87.05
2023-01-11T03:25:13.865Z,86.88
2023-01-11T03:30:21.421Z,86.57
2023-01-11T03:35:29.009Z,86.61
2023-01-11T03:40:36.273Z,86.59
2023-01-11T03:45:55.980Z,86.57
2023-01-11T03:51:01.734Z,86.46
2023-01-11T03:56:09.366Z,86.46
2023-01-11T04:01:12.539Z,86.88
2023-01-11T04:06:14.430Z,87.41
2023-01-11T04:11:16.154Z,87.34
2023-01-11T04:16:17.917Z,87.71
2023-01-11T04:21:19.767Z,87.64
2023-01-11T04:26:21.660Z,87.91
2023-01-11T04:31:23.515Z,87.95
2023-01-11T04:36:26.449Z,87.76
2023-01-11T04:41:46.725Z,87.63
2023-01-11T04:46:48.534Z,87.44
2023-01-11T04:51:50.229Z,87.48
2023-01-11T04:56:52.083Z,87.58
2023-01-11T05:01:54.020Z,87.75
2023-01-11T05:06:55.803Z,87.75
2023-01-11T05:11:57.459Z,87.49
2023-01-11T05:16:59.256Z,87.41
2023-01-11T05:22:00.955Z,87.40
2023-01-11T05:27:03.586Z,87.25
2023-01-11T05:32:05.815Z,87.09
2023-01-11T05:37:07.567Z,87.20
2023-01-11T05:42:09.344Z,87.13
2023-01-11T05:47:11.250Z,87.18
2023-01-11T05:52:13.133Z,87.21
2023-01-11T05:57:15.132Z,87.53
2023-01-11T06:02:16.972Z,87.86
2023-01-11T06:07:18.782Z,87.65
2023-01-11T06:12:20.605Z,87.64
2023-01-11T06:17:22.333Z,87.35
2023-01-11T06:22:24.042Z,86.99
2023-01-11T06:27:25.843Z,87.24
2023-01-11T06:32:29.784Z,87.46
2023-01-11T06:37:31.893Z,87.42
2023-01-11T06:42:33.560Z,87.31
2023-01-11T06:47:35.292Z,87.55
2023-01-11T06:52:36.939Z,87.45
2023-01-11T06:57:38.601Z,87.26
2023-01-11T07:02:40.313Z,87.22
2023-01-11T07:07:43.649Z,87.54
2023-01-11T07:12:45.619Z,87.28
2023-01-11T07:17:49.309Z,87.55
2023-01-11T07:22:51.568Z,87.82
2023-01-11T07:27:57.259Z,87.79
2023-01-11T07:32:59.653Z,87.82
2023-01-11T07:38:02.897Z,87.96
2023-01-11T07:43:18.820Z,87.93
2023-01-11T07:48:26.057Z,87.75
2023-01-11T07:53:27.732Z,87.50
2023-01-11T07:58:29.415Z,87.20
2023-01-11T08:03:31.400Z,86.97
2023-01-11T08:08:33.195Z,87.01
2023-01-11T08:13:53.740Z,86.86
2023-01-11T08:18:55.421Z,86.84
2023-01-11T08:23:58.796Z,86.67
2023-01-11T08:29:00.484Z,86.42
2023-01-11T08:34:02.171Z,86.10
2023-01-11T08:39:04.138Z,85.84
2023-01-11T08:44:08.735Z,85.54
2023-01-11T08:49:12.373Z,85.53
2023-01-11T08:54:14.553Z,85.30
2023-01-11T08:59:16.248Z,84.92
2023-01-11T09:04:24.804Z,84.78
2023-01-11T09:09:27.157Z,84.72
2023-01-11T09:14:29.307Z,84.64
2023-01-11T09:19:33.418Z,84.71
2023-01-11T09:24:35.178Z,85.03
2023-01-11T09:29:37.816Z,84.30
2023-01-11T09:34:41.219Z,84.24
2023-01-11T09:39:43.236Z,84.18
2023-01-11T09:44:56.722Z,84.17
2023-01-11T09:50:02.033Z,84.43
2023-01-11T09:55:05.427Z,84.36
2023-01-11T10:00:42.589Z,84.47
2023-01-11T10:06:02.766Z,84.50
2023-01-11T10:18:41.441Z,84.35
2023-01-11T10:22:33.730Z,84.14
2023-01-11T10:27:39.730Z,83.97
2023-01-11T10:32:54.312Z,83.47
2023-01-11T10:38:22.970Z,82.51
2023-01-11T10:43:28.933Z,81.50
2023-01-11T10:48:34.609Z,80.61
2023-01-11T10:53:49.972Z,80.15
2023-01-11T10:59:22.656Z,79.53
2023-01-11T11:05:00.599Z,78.32
2023-01-11T11:10:02.234Z,78.69
2023-01-11T11:15:21.710Z,77.66
2023-01-11T11:20:34.357Z,77.50
2023-01-11T11:25:43.328Z,76.39
2023-01-11T11:30:48.270Z,76.57
2023-01-11T11:36:04.966Z,75.72
2023-01-11T11:41:12.433Z,75.65
2023-01-11T11:46:18.817Z,74.77
2023-01-11T11:51:23.222Z,74.48
2023-01-11T11:56:28.925Z,74.48
2023-01-11T12:01:35.515Z,73.68
2023-01-11T12:06:38.089Z,73.37
2023-01-11T12:11:42.150Z,73.05
2023-01-11T12:16:45.798Z,72.39
2023-01-11T12:21:47.624Z,71.58
2023-01-11T12:27:04.543Z,70.49
2023-01-11T12:32:20.834Z,70.82
2023-01-11T12:37:47.295Z,71.61
2023-01-11T12:43:08.764Z,71.32
2023-01-11T12:48:38.558Z,71.20
2023-01-11T12:53:49.348Z,70.10
2023-01-11T12:59:29.436Z,69.72
2023-01-11T13:04:52.543Z,69.26
2023-01-11T13:10:06.050Z,68.69
2023-01-11T13:15:34.642Z,68.53
2023-01-11T13:21:00.056Z,68.74
2023-01-11T13:26:19.727Z,69.97
2023-01-11T13:31:22.735Z,70.54
2023-01-11T13:36:30.704Z,70.56
2023-01-11T13:41:39.711Z,71.89
2023-01-11T13:47:02.506Z,71.87
2023-01-11T13:52:12.786Z,72.01
2023-01-11T13:57:27.223Z,72.21
2023-01-11T14:02:46.570Z,72.17
2023-01-11T14:08:19.511Z,72.12
2023-01-11T14:13:56.023Z,72.48
2023-01-11T14:19:06.063Z,72.38
2023-01-11T14:24:10.153Z,72.53
2023-01-11T14:29:30.599Z,72.33
2023-01-11T14:34:41.904Z,72.42
2023-01-11T14:40:02.066Z,72.70
2023-01-11T14:45:22.429Z,73.22
2023-01-11T14:50:45.779Z,73.73
2023-01-11T14:55:49.073Z,73.93
2023-01-11T15:00:53.554Z,74.25
2023-01-11T15:06:00.340Z,74.95
2023-01-11T15:11:22.777Z,75.00
2023-01-11T15:16:46.283Z,75.29
2023-01-11T15:21:50.337Z,75.64
2023-01-11T15:26:52.775Z,75.88
2023-01-11T15:31:54.875Z,76.28
2023-01-11T15:37:03.537Z,76.59
2023-01-11T15:42:31.839Z,76.85
2023-01-11T15:47:54.486Z,76.91
2023-01-11T15:53:06.866Z,77.03
2023-01-11T15:58:29.783Z,77.07
2023-01-11T16:03:54.151Z,77.27
2023-01-11T16:09:49.940Z,77.68
2023-01-11T16:15:12.892Z,77.91
2023-01-11T16:20:20.531Z,77.80
2023-01-11T16:25:25.303Z,77.89
2023-01-11T16:30:28.458Z,77.92
2023-01-11T16:35:30.170Z,77.85
2023-01-11T16:40:40.189Z,77.98
2023-01-11T16:45:44.659Z,77.95
2023-01-11T16:50:59.391Z,77.58
2023-01-11T16:56:15.778Z,77.51
2023-01-11T17:01:17.510Z,77.37
2023-01-11T17:06:24.551Z,77.42
2023-01-11T17:11:39.476Z,77.53
2023-01-11T17:16:45.236Z,77.64
2023-01-11T17:21:50.858Z,77.67
2023-01-11T17:26:58.806Z,77.68
2023-01-11T17:32:04.524Z,77.79
2023-01-11T17:37:11.152Z,77.97
2023-01-11T17:42:34.069Z,77.69
2023-01-11T17:47:42.766Z,77.80
2023-01-11T17:52:54.468Z,77.82
2023-01-11T17:58:14.121Z,77.72
2023-01-11T18:03:18.662Z,77.53
2023-01-11T18:08:22.579Z,77.12
2023-01-11T18:13:34.836Z,76.66
2023-01-11T18:18:47.150Z,76.40
2023-01-11T18:23:49.002Z,75.83
2023-01-11T18:28:51.318Z,75.70
2023-01-11T18:33:55.687Z,74.91
2023-01-11T18:38:57.606Z,74.67
2023-01-11T18:44:00.609Z,74.49
2023-01-11T18:49:02.301Z,74.10
2023-01-11T18:54:04.076Z,73.93
2023-01-11T18:59:06.356Z,73.13
2023-01-11T19:04:10.248Z,72.54
2023-01-11T19:09:12.163Z,72.17
2023-01-11T19:14:14.179Z,72.02
2023-01-11T19:19:16.255Z,71.46
2023-01-11T19:24:17.871Z,71.14
2023-01-11T19:29:20.396Z,71.04
2023-01-11T19:34:23.505Z,70.82
2023-01-11T19:39:26.102Z,70.56
2023-01-11T19:44:37.246Z,70.85
2023-01-11T19:49:40.101Z,70.65
2023-01-11T19:54:43.370Z,70.09
2023-01-11T19:59:45.062Z,69.17
2023-01-11T20:04:46.965Z,68.92
2023-01-11T20:09:49.131Z,69.05
2023-01-11T20:14:50.862Z,68.98
2023-01-11T20:19:54.849Z,68.53
2023-01-11T20:24:56.940Z,68.53
2023-01-11T20:29:58.672Z,68.83
2023-01-11T20:35:00.335Z,68.97
2023-01-11T20:40:02.105Z,68.85
2023-01-11T20:45:04.564Z,68.61
2023-01-11T20:50:07.371Z,67.94
2023-01-11T20:55:10.385Z,67.97
2023-01-11T21:00:13.838Z,67.93
2023-01-11T21:05:16.382Z,67.99
2023-01-11T21:10:18.564Z,68.07
2023-01-11T21:15:20.490Z,68.31
2023-01-11T21:20:22.432Z,67.88
2023-01-11T21:25:24.242Z,68.40
2023-01-11T21:30:25.879Z,68.10
2023-01-11T21:35:27.684Z,68.36
2023-01-11T21:40:30.120Z,68.75
2023-01-11T21:45:31.760Z,68.54
2023-01-11T21:50:33.510Z,68.82
2023-01-11T21:55:35.345Z,69.30
2023-01-11T22:00:37.036Z,70.08
2023-01-11T22:05:38.857Z,70.62
2023-01-11T22:10:40.583Z,71.66
2023-01-11T22:15:42.252Z,72.82
2023-01-11T22:20:44.007Z,73.85
2023-01-11T22:25:45.716Z,75.43
2023-01-11T22:30:49.053Z,77.18
2023-01-11T22:35:54.906Z,78.08
2023-01-11T22:41:00.308Z,79.37
2023-01-11T22:46:02.646Z,80.13
2023-01-11T22:51:11.617Z,80.74
2023-01-11T22:56:14.911Z,80.87
2023-01-11T23:01:27.768Z,81.59
2023-01-11T23:06:32.424Z,81.72
2023-01-11T23:11:56.587Z,82.00
2023-01-11T23:17:05.715Z,82.19
2023-01-11T23:22:09.007Z,82.37
2023-01-11T23:27:10.705Z,82.72
2023-01-11T23:32:12.455Z,82.74
2023-01-11T23:37:14.147Z,83.12
2023-01-11T23:42:27.985Z,82.98
2023-01-11T23:47:31.453Z,83.26
2023-01-11T23:52:33.118Z,83.43
2023-01-11T23:57:34.867Z,83.57
